createdAt,value
2017-09-21T00:01:16.000Z,8.5
2017-09-21T00:02:34.672Z,8.5
2017-09-21T00:03:53.325Z,8.5
2017-09-21T00:05:11.971Z,8.4
2017-09-21T00:06:30.611Z,8.4
2017-09-21T00:07:49.270Z,8.3
2017-09-21T00:09:07.934Z,8.3
2017-09-21T00:10:26.581Z,8.3
2017-09-21T00:11:45.223Z,8.3
2017-09-21T00:13:03.927Z,8.3
2017-09-21T00:14:22.640Z,8.3
2017-09-21T00:15:41.285Z,8.3
2017-09-21T00:16:59.932Z,8.3
2017-09-21T00:18:18.602Z,8.4
2017-09-21T00:19:37.339Z,8.4
2017-09-21T00:20:56.007Z,8.4
2017-09-21T00:22:14.649Z,8.4
2017-09-21T00:23:33.295Z,8.4
2017-09-21T00:24:51.992Z,8.4
2017-09-21T00:26:10.631Z,8.4
2017-09-21T00:27:29.328Z,8.3
2017-09-21T00:28:48.016Z,8.3
2017-09-21T00:30:06.700Z,8.3
2017-09-21T00:31:25.349Z,8.3
2017-09-21T00:32:44.008Z,8.2
2017-09-21T00:34:02.668Z,8.2
2017-09-21T00:35:21.373Z,8.2
2017-09-21T00:36:40.015Z,8.1
2017-09-21T00:37:58.675Z,8
2017-09-21T00:39:17.353Z,8
2017-09-21T00:40:36.009Z,7.9
2017-09-21T00:41:54.652Z,7.8
2017-09-21T00:43:13.325Z,7.7
2017-09-21T00:44:31.972Z,7.6
2017-09-21T00:45:50.655Z,7.5
2017-09-21T00:47:09.332Z,7.5
2017-09-21T00:48:27.987Z,7.4
2017-09-21T00:49:46.645Z,7.3
2017-09-21T00:51:05.325Z,7.3
2017-09-21T00:52:23.971Z,7.3
2017-09-21T00:53:42.623Z,7.3
2017-09-21T00:55:01.264Z,7.2
2017-09-21T00:56:19.949Z,7.1
2017-09-21T00:57:38.650Z,7.1
2017-09-21T00:58:57.312Z,7.1
2017-09-21T01:00:15.961Z,7.1
2017-09-21T01:01:34.629Z,7.1
2017-09-21T01:02:53.275Z,7.1
2017-09-21T01:04:11.963Z,7.1
2017-09-21T01:05:30.650Z,7.1
2017-09-21T01:06:49.364Z,7.1
2017-09-21T01:08:08.041Z,7.1
2017-09-21T01:09:26.694Z,7.1
2017-09-21T01:10:45.341Z,7.1
2017-09-21T01:12:04.025Z,7
2017-09-21T01:13:22.675Z,7
2017-09-21T01:14:41.316Z,7
2017-09-21T01:15:59.963Z,6.9
2017-09-21T01:17:18.713Z,6.8
2017-09-21T01:18:37.358Z,6.8
2017-09-21T01:19:56.012Z,6.7
2017-09-21T01:21:14.690Z,6.7
2017-09-21T01:22:33.378Z,6.6
2017-09-21T01:23:52.060Z,6.5
2017-09-21T01:25:10.711Z,6.5
2017-09-21T01:26:29.361Z,6.5
2017-09-21T01:27:48.030Z,6.4
2017-09-21T01:29:06.690Z,6.5
2017-09-21T01:30:25.352Z,6.4
2017-09-21T01:31:43.996Z,6.5
2017-09-21T01:33:02.691Z,6.4
2017-09-21T01:34:21.386Z,6.4
2017-09-21T01:35:40.085Z,6.4
2017-09-21T01:36:58.759Z,6.3
2017-09-21T01:38:17.423Z,6.3
2017-09-21T01:39:36.076Z,6.3
2017-09-21T01:40:54.725Z,6.3
2017-09-21T01:42:13.388Z,6.3
2017-09-21T01:43:32.065Z,6.2
2017-09-21T01:44:50.715Z,6.1
2017-09-21T01:46:09.357Z,6.1
2017-09-21T01:47:28.056Z,6
2017-09-21T01:48:46.737Z,6
2017-09-21T01:50:05.390Z,6
2017-09-21T01:51:24.037Z,5.9
2017-09-21T01:52:42.678Z,5.9
2017-09-21T01:54:01.353Z,5.9
2017-09-21T01:55:20.002Z,5.9
2017-09-21T01:56:38.666Z,5.9
2017-09-21T01:57:57.314Z,5.8
2017-09-21T01:59:15.976Z,5.8
2017-09-21T02:00:34.626Z,5.8
2017-09-21T02:01:53.290Z,5.7
2017-09-21T02:03:11.993Z,5.7
2017-09-21T02:04:30.671Z,5.7
2017-09-21T02:05:49.317Z,5.7
2017-09-21T02:07:07.962Z,5.7
2017-09-21T02:08:26.608Z,5.7
2017-09-21T02:09:45.267Z,5.7
2017-09-21T02:11:03.921Z,5.9
2017-09-21T02:12:22.560Z,5.8
2017-09-21T02:13:41.207Z,5.7
2017-09-21T02:14:59.869Z,5.7
2017-09-21T02:16:18.542Z,5.6
2017-09-21T02:17:37.235Z,5.6
2017-09-21T02:18:55.921Z,5.6
2017-09-21T02:20:14.579Z,5.6
2017-09-21T02:21:33.242Z,5.6
2017-09-21T02:22:51.913Z,5.6
2017-09-21T02:24:10.580Z,5.6
2017-09-21T02:25:29.282Z,5.6
2017-09-21T02:26:47.927Z,5.6
2017-09-21T02:28:06.568Z,5.6
2017-09-21T02:29:25.211Z,5.7
2017-09-21T02:30:43.852Z,5.7
2017-09-21T02:32:02.509Z,5.7
2017-09-21T02:33:21.148Z,5.6
2017-09-21T02:34:39.791Z,5.7
2017-09-21T02:35:58.513Z,5.7
2017-09-21T02:37:17.151Z,5.7
2017-09-21T02:38:35.797Z,5.6
2017-09-21T02:39:54.471Z,5.6
2017-09-21T02:41:13.133Z,5.7
2017-09-21T02:42:31.778Z,5.7
2017-09-21T02:43:50.434Z,5.7
2017-09-21T02:45:09.080Z,5.7
2017-09-21T02:46:27.741Z,5.7
2017-09-21T02:47:46.414Z,5.7
2017-09-21T02:49:05.065Z,5.7
2017-09-21T02:50:23.749Z,5.7
2017-09-21T02:51:42.401Z,5.7
2017-09-21T02:53:01.085Z,5.7
2017-09-21T02:54:19.782Z,5.7
2017-09-21T02:55:38.448Z,5.7
2017-09-21T02:56:57.118Z,5.7
2017-09-21T02:58:15.757Z,5.7
2017-09-21T02:59:34.445Z,5.6
2017-09-21T03:00:53.111Z,5.5
2017-09-21T03:02:11.773Z,5.5
2017-09-21T03:03:30.416Z,5.4
2017-09-21T03:04:49.062Z,5.4
2017-09-21T03:06:07.703Z,5.3
2017-09-21T03:07:26.413Z,5.3
2017-09-21T03:08:45.056Z,5.3
2017-09-21T03:10:03.698Z,5.3
2017-09-21T03:11:22.340Z,5.3
2017-09-21T03:12:41.005Z,5.3
2017-09-21T03:13:59.647Z,5.3
2017-09-21T03:15:18.317Z,5.4
2017-09-21T03:16:36.964Z,5.5
2017-09-21T03:17:55.626Z,5.6
2017-09-21T03:19:14.323Z,5.6
2017-09-21T03:20:32.975Z,5.7
2017-09-21T03:21:51.627Z,5.7
2017-09-21T03:23:10.294Z,5.8
2017-09-21T03:24:28.958Z,5.8
2017-09-21T03:25:47.650Z,5.9
2017-09-21T03:27:06.316Z,5.9
2017-09-21T03:28:24.976Z,5.9
2017-09-21T03:29:43.637Z,5.9
2017-09-21T03:31:02.279Z,6
2017-09-21T03:32:20.925Z,6
2017-09-21T03:33:39.585Z,6
2017-09-21T03:34:58.249Z,6
2017-09-21T03:36:16.912Z,6
2017-09-21T03:37:35.558Z,6
2017-09-21T03:38:54.260Z,6.1
2017-09-21T03:40:12.921Z,6.1
2017-09-21T03:41:31.562Z,6.1
2017-09-21T03:42:50.207Z,6.1
2017-09-21T03:44:08.911Z,6.1
2017-09-21T03:45:27.549Z,6.1
2017-09-21T03:46:46.194Z,6.1
2017-09-21T03:48:04.842Z,6
2017-09-21T03:49:23.504Z,6
2017-09-21T03:50:42.145Z,5.9
2017-09-21T03:52:00.826Z,5.9
2017-09-21T03:53:19.472Z,5.9
2017-09-21T03:54:38.166Z,5.9
2017-09-21T03:55:56.849Z,5.8
2017-09-21T03:57:15.488Z,5.8
2017-09-21T03:58:34.157Z,5.8
2017-09-21T03:59:52.875Z,5.7
2017-09-21T04:01:11.518Z,5.7
2017-09-21T04:02:30.162Z,5.6
2017-09-21T04:03:48.807Z,5.6
2017-09-21T04:05:07.504Z,5.6
2017-09-21T04:06:26.144Z,5.5
2017-09-21T04:07:44.794Z,5.5
2017-09-21T04:09:03.433Z,5.5
2017-09-21T04:10:22.125Z,5.5
2017-09-21T04:11:40.822Z,5.5
2017-09-21T04:12:59.465Z,5.5
2017-09-21T04:14:18.120Z,5.6
2017-09-21T04:15:36.776Z,5.6
2017-09-21T04:16:55.474Z,5.7
2017-09-21T04:18:14.169Z,5.7
2017-09-21T04:19:32.870Z,5.6
2017-09-21T04:20:51.587Z,5.5
2017-09-21T04:22:10.228Z,5.5
2017-09-21T04:23:28.895Z,5.4
2017-09-21T04:24:47.538Z,5.4
2017-09-21T04:26:06.217Z,5.4
2017-09-21T04:27:24.865Z,5.4
2017-09-21T04:28:43.513Z,5.3
2017-09-21T04:30:02.187Z,5.4
2017-09-21T04:31:20.891Z,5.3
2017-09-21T04:32:39.537Z,5.3
2017-09-21T04:33:58.236Z,5.3
2017-09-21T04:35:16.926Z,5.2
2017-09-21T04:36:35.574Z,5.2
2017-09-21T04:37:54.269Z,5.1
2017-09-21T04:39:12.956Z,5.1
2017-09-21T04:40:31.601Z,5.1
2017-09-21T04:41:50.260Z,5.1
2017-09-21T04:43:08.908Z,5.1
2017-09-21T04:44:27.618Z,5.2
2017-09-21T04:45:46.257Z,5.2
2017-09-21T04:47:04.923Z,5.1
2017-09-21T04:48:23.573Z,5.1
2017-09-21T04:49:42.210Z,5.1
2017-09-21T04:51:00.894Z,5.2
2017-09-21T04:52:19.555Z,5.1
2017-09-21T04:53:38.195Z,5.1
2017-09-21T04:54:56.837Z,5.2
2017-09-21T04:56:15.530Z,5.2
2017-09-21T04:57:34.185Z,5.2
2017-09-21T04:58:52.853Z,5.2
2017-09-21T05:00:11.507Z,5.3
2017-09-21T05:01:30.152Z,5.3
2017-09-21T05:02:48.857Z,5.2
2017-09-21T05:04:07.550Z,5.1
2017-09-21T05:05:26.192Z,5
2017-09-21T05:06:44.839Z,5
2017-09-21T05:08:03.511Z,5
2017-09-21T05:09:22.144Z,5
2017-09-21T05:10:40.787Z,5
2017-09-21T05:11:59.429Z,5
2017-09-21T05:13:18.138Z,5
2017-09-21T05:14:36.841Z,5
2017-09-21T05:15:55.489Z,5
2017-09-21T05:17:14.158Z,5
2017-09-21T05:18:32.848Z,5.1
2017-09-21T05:19:51.529Z,5.1
2017-09-21T05:21:10.212Z,5.1
2017-09-21T05:22:28.855Z,5.1
2017-09-21T05:23:47.547Z,5.2
2017-09-21T05:25:06.191Z,5.2
2017-09-21T05:26:24.842Z,5.2
2017-09-21T05:27:43.522Z,5.2
2017-09-21T05:29:02.167Z,5.2
2017-09-21T05:30:20.868Z,5.2
2017-09-21T05:31:39.507Z,5.2
2017-09-21T05:32:58.152Z,5.3
2017-09-21T05:34:16.806Z,5.3
2017-09-21T05:35:35.451Z,5.3
2017-09-21T05:36:54.092Z,5.3
2017-09-21T05:38:12.747Z,5.2
2017-09-21T05:39:31.410Z,5.2
2017-09-21T05:40:50.050Z,5.2
2017-09-21T05:42:08.697Z,5.3
2017-09-21T05:43:27.360Z,5.3
2017-09-21T05:44:46.019Z,5.3
2017-09-21T05:46:04.668Z,5.4
2017-09-21T05:47:23.320Z,5.4
2017-09-21T05:48:41.990Z,5.5
2017-09-21T05:50:00.688Z,5.5
2017-09-21T05:51:19.336Z,5.5
2017-09-21T05:52:37.979Z,5.5
2017-09-21T05:53:56.618Z,5.5
2017-09-21T05:55:15.334Z,5.5
2017-09-21T05:56:33.990Z,5.5
2017-09-21T05:57:52.652Z,5.5
2017-09-21T05:59:11.304Z,5.5
2017-09-21T06:00:29.955Z,5.5
2017-09-21T06:01:48.654Z,5.6
2017-09-21T06:03:07.345Z,5.7
2017-09-21T06:04:25.983Z,5.7
2017-09-21T06:05:44.629Z,5.8
2017-09-21T06:07:03.274Z,5.8
2017-09-21T06:08:21.919Z,5.9
2017-09-21T06:09:40.561Z,5.9
2017-09-21T06:10:59.224Z,6
2017-09-21T06:12:17.888Z,6.1
2017-09-21T06:13:36.573Z,6.1
2017-09-21T06:14:55.212Z,6.2
2017-09-21T06:16:13.874Z,6.2
2017-09-21T06:17:32.546Z,6.3
2017-09-21T06:18:51.188Z,6.3
2017-09-21T06:20:09.832Z,6.4
2017-09-21T06:21:28.492Z,6.5
2017-09-21T06:22:47.200Z,6.5
2017-09-21T06:24:05.853Z,6.6
2017-09-21T06:25:24.492Z,6.7
2017-09-21T06:26:43.155Z,6.7
2017-09-21T06:28:01.801Z,6.9
2017-09-21T06:29:20.444Z,7
2017-09-21T06:30:39.142Z,7.1
2017-09-21T06:31:57.799Z,7.2
2017-09-21T06:33:16.445Z,7.3
2017-09-21T06:34:35.095Z,7.4
2017-09-21T06:35:53.742Z,7.4
2017-09-21T06:37:12.417Z,7.5
2017-09-21T06:38:31.061Z,7.6
2017-09-21T06:39:49.697Z,7.7
2017-09-21T06:41:08.389Z,7.8
2017-09-21T06:42:27.044Z,8
2017-09-21T06:43:45.765Z,8.2
2017-09-21T06:45:04.455Z,8.3
2017-09-21T06:46:23.095Z,8.4
2017-09-21T06:47:41.758Z,8.5
2017-09-21T06:49:00.411Z,8.6
2017-09-21T06:50:19.080Z,8.8
2017-09-21T06:51:37.776Z,8.9
2017-09-21T06:52:56.485Z,9.1
2017-09-21T06:54:15.130Z,9.3
2017-09-21T06:55:33.773Z,9.4
2017-09-21T06:56:52.430Z,9.6
2017-09-21T06:58:11.101Z,9.7
2017-09-21T06:59:29.744Z,9.8
2017-09-21T07:00:48.403Z,9.9
2017-09-21T07:02:07.090Z,10.1
2017-09-21T07:03:25.815Z,10.3
2017-09-21T07:04:44.477Z,10.4
2017-09-21T07:06:03.138Z,10.6
2017-09-21T07:07:21.795Z,10.7
2017-09-21T07:08:40.513Z,10.7
2017-09-21T07:09:59.183Z,10.8
2017-09-21T07:11:17.838Z,10.9
2017-09-21T07:12:36.546Z,11
2017-09-21T07:13:55.279Z,11.1
2017-09-21T07:15:13.941Z,11.2
2017-09-21T07:16:32.616Z,11.4
2017-09-21T07:17:51.330Z,11.5
2017-09-21T07:19:10.006Z,11.6
2017-09-21T07:20:28.677Z,11.6
2017-09-21T07:21:47.350Z,11.5
2017-09-21T07:23:06.025Z,11.3
2017-09-21T07:24:24.689Z,11.2
2017-09-21T07:25:43.350Z,11
2017-09-21T07:27:02.037Z,11
2017-09-21T07:28:20.752Z,10.8
2017-09-21T07:29:39.475Z,10.8
2017-09-21T07:30:58.137Z,10.7
2017-09-21T07:32:16.795Z,10.7
2017-09-21T07:33:35.534Z,10.7
2017-09-21T07:34:54.220Z,10.7
2017-09-21T07:36:12.904Z,10.7
2017-09-21T07:37:31.564Z,10.8
2017-09-21T07:38:50.217Z,10.9
2017-09-21T07:40:08.881Z,10.9
2017-09-21T07:41:27.541Z,10.9
2017-09-21T07:42:46.199Z,10.9
2017-09-21T07:44:04.886Z,11
2017-09-21T07:45:23.562Z,11
2017-09-21T07:46:42.266Z,11
2017-09-21T07:48:00.929Z,11
2017-09-21T07:49:19.596Z,11.1
2017-09-21T07:50:38.295Z,11.1
2017-09-21T07:51:56.983Z,11.1
2017-09-21T07:53:15.640Z,11.2
2017-09-21T07:54:34.359Z,11.3
2017-09-21T07:55:53.020Z,11.3
2017-09-21T07:57:11.674Z,11.4
2017-09-21T07:58:30.399Z,11.4
2017-09-21T07:59:49.060Z,11.5
2017-09-21T08:01:07.770Z,11.5
2017-09-21T08:02:26.447Z,11.6
2017-09-21T08:03:45.108Z,11.7
2017-09-21T08:05:03.765Z,11.7
2017-09-21T08:06:22.450Z,11.7
2017-09-21T08:07:41.116Z,11.7
2017-09-21T08:08:59.773Z,11.8
2017-09-21T08:10:18.455Z,11.9
2017-09-21T08:11:37.176Z,12
2017-09-21T08:12:55.839Z,12
2017-09-21T08:14:14.501Z,12.1
2017-09-21T08:15:33.169Z,12.1
2017-09-21T08:16:51.916Z,12.2
2017-09-21T08:18:10.578Z,12.2
2017-09-21T08:19:29.248Z,12.3
2017-09-21T08:20:47.912Z,12.3
2017-09-21T08:22:06.572Z,12.4
2017-09-21T08:23:25.315Z,12.5
2017-09-21T08:24:43.970Z,12.6
2017-09-21T08:26:02.628Z,12.6
2017-09-21T08:27:21.345Z,12.7
2017-09-21T08:28:40.004Z,12.8
2017-09-21T08:29:58.671Z,12.9
2017-09-21T08:31:17.334Z,12.9
2017-09-21T08:32:35.994Z,12.9
2017-09-21T08:33:54.651Z,12.9
2017-09-21T08:35:13.313Z,13
2017-09-21T08:36:32.019Z,13
2017-09-21T08:37:50.689Z,13.1
2017-09-21T08:39:09.398Z,13.2
2017-09-21T08:40:28.084Z,13.3
2017-09-21T08:41:46.769Z,13.3
2017-09-21T08:43:05.444Z,13.4
2017-09-21T08:44:24.154Z,13.4
2017-09-21T08:45:42.812Z,13.4
2017-09-21T08:47:01.472Z,13.3
2017-09-21T08:48:20.226Z,13.3
2017-09-21T08:49:38.928Z,13.3
2017-09-21T08:50:57.597Z,13.4
2017-09-21T08:52:16.288Z,13.5
2017-09-21T08:53:34.949Z,13.6
2017-09-21T08:54:53.612Z,13.7
2017-09-21T08:56:12.271Z,13.8
2017-09-21T08:57:30.941Z,13.8
2017-09-21T08:58:49.651Z,13.7
2017-09-21T09:00:08.314Z,13.7
2017-09-21T09:01:27.034Z,13.8
2017-09-21T09:02:45.736Z,13.9
2017-09-21T09:04:04.403Z,14
2017-09-21T09:05:23.072Z,14.2
2017-09-21T09:06:41.817Z,14.1
2017-09-21T09:08:00.483Z,14.1
2017-09-21T09:09:19.145Z,14
2017-09-21T09:10:37.801Z,14.1
2017-09-21T09:11:56.468Z,14.1
2017-09-21T09:13:15.155Z,14.2
2017-09-21T09:14:33.827Z,14.4
2017-09-21T09:15:52.536Z,14.4
2017-09-21T09:17:11.205Z,14.5
2017-09-21T09:18:29.859Z,14.6
2017-09-21T09:19:48.531Z,14.6
2017-09-21T09:21:07.198Z,14.7
2017-09-21T09:22:25.886Z,14.8
2017-09-21T09:23:44.545Z,14.9
2017-09-21T09:25:03.256Z,15
2017-09-21T09:26:21.952Z,15.2
2017-09-21T09:27:40.613Z,15.2
2017-09-21T09:28:59.270Z,15.3
2017-09-21T09:30:17.947Z,15.4
2017-09-21T09:31:36.675Z,15.6
2017-09-21T09:32:55.338Z,15.8
2017-09-21T09:34:14.005Z,16
2017-09-21T09:35:32.687Z,16.1
2017-09-21T09:36:51.353Z,16.2
2017-09-21T09:38:10.062Z,16.1
2017-09-21T09:39:28.719Z,16.1
2017-09-21T09:40:47.393Z,16.1
2017-09-21T09:42:06.049Z,16.1
2017-09-21T09:43:24.755Z,16.2
2017-09-21T09:44:43.417Z,16.1
2017-09-21T09:46:02.097Z,15.9
2017-09-21T09:47:20.758Z,16
2017-09-21T09:48:39.419Z,16.1
2017-09-21T09:49:58.089Z,16.3
2017-09-21T09:51:16.762Z,16.4
2017-09-21T09:52:35.459Z,16.5
2017-09-21T09:53:54.181Z,16.6
2017-09-21T09:55:12.876Z,16.6
2017-09-21T09:56:31.570Z,16.9
2017-09-21T09:57:50.234Z,17.1
2017-09-21T09:59:08.925Z,17.5
2017-09-21T10:00:27.585Z,17.6
2017-09-21T10:01:46.305Z,17.8
2017-09-21T10:03:04.956Z,17.9
2017-09-21T10:04:23.657Z,17.8
2017-09-21T10:05:42.321Z,18
2017-09-21T10:07:00.992Z,18
2017-09-21T10:08:19.656Z,18.1
2017-09-21T10:09:38.317Z,18.1
2017-09-21T10:10:56.968Z,18.2
2017-09-21T10:12:15.638Z,18.2
2017-09-21T10:13:34.349Z,17.9
2017-09-21T10:14:53.010Z,17.8
2017-09-21T10:16:11.724Z,17.6
2017-09-21T10:17:30.390Z,17.7
2017-09-21T10:18:49.085Z,17.7
2017-09-21T10:20:07.801Z,17.8
2017-09-21T10:21:26.492Z,17.7
2017-09-21T10:22:45.157Z,17.6
2017-09-21T10:24:03.820Z,17.7
2017-09-21T10:25:22.519Z,17.7
2017-09-21T10:26:41.241Z,17.7
2017-09-21T10:27:59.914Z,17.7
2017-09-21T10:29:18.601Z,17.8
2017-09-21T10:30:37.259Z,18.1
2017-09-21T10:31:55.918Z,18
2017-09-21T10:33:14.649Z,18.3
2017-09-21T10:34:33.345Z,18.4
2017-09-21T10:35:52.052Z,18.5
2017-09-21T10:37:10.718Z,18.6
2017-09-21T10:38:29.436Z,18.8
2017-09-21T10:39:48.141Z,18.9
2017-09-21T10:41:06.807Z,19
2017-09-21T10:42:25.464Z,19
2017-09-21T10:43:44.139Z,19.1
2017-09-21T10:45:02.809Z,18.7
2017-09-21T10:46:21.479Z,18.7
2017-09-21T10:47:40.142Z,18.6
2017-09-21T10:48:58.824Z,18.3
2017-09-21T10:50:17.491Z,18.1
2017-09-21T10:51:36.172Z,17.7
2017-09-21T10:52:54.884Z,17.4
2017-09-21T10:54:13.570Z,17.1
2017-09-21T10:55:32.235Z,16.8
2017-09-21T10:56:50.893Z,16.6
2017-09-21T10:58:09.604Z,16.4
2017-09-21T10:59:28.314Z,16.2
2017-09-21T11:00:46.975Z,16.2
2017-09-21T11:02:05.632Z,16.1
2017-09-21T11:03:24.284Z,16
2017-09-21T11:04:42.952Z,16
2017-09-21T11:06:01.665Z,16
2017-09-21T11:07:20.317Z,16
2017-09-21T11:08:38.976Z,16
2017-09-21T11:09:57.660Z,15.9
2017-09-21T11:11:16.370Z,15.7
2017-09-21T11:12:35.024Z,15.7
2017-09-21T11:13:53.677Z,15.9
2017-09-21T11:15:12.393Z,15.8
2017-09-21T11:16:31.092Z,15.8
2017-09-21T11:17:49.773Z,15.6
2017-09-21T11:19:08.488Z,15.6
2017-09-21T11:20:27.194Z,15.5
2017-09-21T11:21:45.848Z,15.4
2017-09-21T11:23:04.571Z,15.4
2017-09-21T11:24:23.234Z,15.4
2017-09-21T11:25:41.900Z,15.4
2017-09-21T11:27:00.607Z,15.5
2017-09-21T11:28:19.316Z,15.4
2017-09-21T11:29:37.975Z,15.5
2017-09-21T11:30:56.653Z,15.6
2017-09-21T11:32:15.311Z,15.6
2017-09-21T11:33:33.990Z,15.5
2017-09-21T11:34:52.644Z,15.7
2017-09-21T11:36:11.325Z,15.7
2017-09-21T11:37:29.982Z,15.7
2017-09-21T11:38:48.671Z,15.6
2017-09-21T11:40:07.332Z,15.5
2017-09-21T11:41:26.028Z,15.3
2017-09-21T11:42:44.747Z,15.2
2017-09-21T11:44:03.428Z,15.1
2017-09-21T11:45:22.140Z,15.1
2017-09-21T11:46:40.809Z,15
2017-09-21T11:47:59.503Z,15.1
2017-09-21T11:49:18.212Z,15.1
2017-09-21T11:50:36.868Z,15
2017-09-21T11:51:55.547Z,14.9
2017-09-21T11:53:14.259Z,14.8
2017-09-21T11:54:32.923Z,14.9
2017-09-21T11:55:51.600Z,14.8
2017-09-21T11:57:10.256Z,14.7
2017-09-21T11:58:28.922Z,14.6
2017-09-21T11:59:47.579Z,14.5
2017-09-21T12:01:06.286Z,14.4
2017-09-21T12:02:24.970Z,14.4
2017-09-21T12:03:43.673Z,14.4
2017-09-21T12:05:02.334Z,14.3
2017-09-21T12:06:21.021Z,14.4
2017-09-21T12:07:39.693Z,14.4
2017-09-21T12:08:58.353Z,14.5
2017-09-21T12:10:17.024Z,14.5
2017-09-21T12:11:35.683Z,14.6
2017-09-21T12:12:54.400Z,14.5
2017-09-21T12:14:13.066Z,14.5
2017-09-21T12:15:31.728Z,14.5
2017-09-21T12:16:50.388Z,14.6
2017-09-21T12:18:09.084Z,14.7
2017-09-21T12:19:27.745Z,14.7
2017-09-21T12:20:46.399Z,14.8
2017-09-21T12:22:05.060Z,14.8
2017-09-21T12:23:23.725Z,14.8
2017-09-21T12:24:42.442Z,14.7
2017-09-21T12:26:01.106Z,14.8
2017-09-21T12:27:19.794Z,14.8
2017-09-21T12:28:38.481Z,14.9
2017-09-21T12:29:57.146Z,15.1
2017-09-21T12:31:15.871Z,15.1
2017-09-21T12:32:34.533Z,15.3
2017-09-21T12:33:53.211Z,15.3
2017-09-21T12:35:11.872Z,15.3
2017-09-21T12:36:30.530Z,15.4
2017-09-21T12:37:49.268Z,15.5
2017-09-21T12:39:07.982Z,15.7
2017-09-21T12:40:26.647Z,16
2017-09-21T12:41:45.359Z,16.1
2017-09-21T12:43:04.023Z,16.5
2017-09-21T12:44:22.747Z,16.8
2017-09-21T12:45:41.413Z,16.6
2017-09-21T12:47:00.128Z,16.5
2017-09-21T12:48:18.807Z,16.6
2017-09-21T12:49:37.477Z,16.9
2017-09-21T12:50:56.153Z,17.1
2017-09-21T12:52:14.817Z,17.4
2017-09-21T12:53:33.488Z,17.8
2017-09-21T12:54:52.166Z,19.3
2017-09-21T12:56:10.859Z,21.3
2017-09-21T12:57:29.533Z,21
2017-09-21T12:58:48.226Z,20.5
2017-09-21T13:00:06.902Z,19.9
2017-09-21T13:01:25.630Z,19.6
2017-09-21T13:02:44.293Z,19.2
2017-09-21T13:04:02.961Z,18.9
2017-09-21T13:05:21.697Z,18.7
2017-09-21T13:06:40.409Z,18.7
2017-09-21T13:07:59.138Z,19
2017-09-21T13:09:17.793Z,19.3
2017-09-21T13:10:36.476Z,19.6
2017-09-21T13:11:55.139Z,20.1
2017-09-21T13:13:13.843Z,20.3
2017-09-21T13:14:32.498Z,20.6
2017-09-21T13:15:51.168Z,20.5
2017-09-21T13:17:09.826Z,20.4
2017-09-21T13:18:28.534Z,20.3
2017-09-21T13:19:47.201Z,20.4
2017-09-21T13:21:05.875Z,20.2
2017-09-21T13:22:24.582Z,20.2
2017-09-21T13:23:43.256Z,20.1
2017-09-21T13:25:01.948Z,20.1
2017-09-21T13:26:20.655Z,19.9
2017-09-21T13:27:39.344Z,19.9
2017-09-21T13:28:58.048Z,20
2017-09-21T13:30:16.703Z,19.8
2017-09-21T13:31:35.385Z,19.9
2017-09-21T13:32:54.089Z,19.9
2017-09-21T13:34:12.750Z,20.1
2017-09-21T13:35:31.446Z,20.2
2017-09-21T13:36:50.152Z,20.3
2017-09-21T13:38:08.818Z,20.6
2017-09-21T13:39:27.499Z,20.6
2017-09-21T13:40:46.181Z,20.4
2017-09-21T13:42:04.863Z,20.1
2017-09-21T13:43:23.517Z,19.4
2017-09-21T13:44:42.171Z,19.1
2017-09-21T13:46:00.846Z,18.9
2017-09-21T13:47:19.546Z,18.7
2017-09-21T13:48:38.209Z,18.3
2017-09-21T13:49:56.922Z,18.1
2017-09-21T13:51:15.605Z,17.8
2017-09-21T13:52:34.269Z,17.6
2017-09-21T13:53:52.929Z,17.4
2017-09-21T13:55:11.593Z,17.4
2017-09-21T13:56:30.262Z,17.2
2017-09-21T13:57:48.973Z,17
2017-09-21T13:59:07.634Z,16.9
2017-09-21T14:00:26.302Z,16.8
2017-09-21T14:01:44.967Z,16.7
2017-09-21T14:03:03.654Z,16.5
2017-09-21T14:04:22.316Z,16.3
2017-09-21T14:05:40.981Z,16.2
2017-09-21T14:06:59.661Z,16.1
2017-09-21T14:08:18.356Z,16.1
2017-09-21T14:09:37.021Z,16
2017-09-21T14:10:55.735Z,15.8
2017-09-21T14:12:14.452Z,15.8
2017-09-21T14:13:33.187Z,15.7
2017-09-21T14:14:51.886Z,15.7
2017-09-21T14:16:10.573Z,15.6
2017-09-21T14:17:29.237Z,15.5
2017-09-21T14:18:47.901Z,15.4
2017-09-21T14:20:06.589Z,15.3
2017-09-21T14:21:25.330Z,15.2
2017-09-21T14:22:44.034Z,15.2
2017-09-21T14:24:02.758Z,15.2
2017-09-21T14:25:21.453Z,15.1
2017-09-21T14:26:40.170Z,15.1
2017-09-21T14:27:58.850Z,15
2017-09-21T14:29:17.507Z,15
2017-09-21T14:30:36.169Z,15
2017-09-21T14:31:54.878Z,15
2017-09-21T14:33:13.543Z,15
2017-09-21T14:34:32.218Z,14.9
2017-09-21T14:35:50.916Z,15
2017-09-21T14:37:09.569Z,15
2017-09-21T14:38:28.283Z,14.9
2017-09-21T14:39:46.965Z,14.9
2017-09-21T14:41:05.620Z,14.9
2017-09-21T14:42:24.281Z,14.8
2017-09-21T14:43:42.941Z,14.9
2017-09-21T14:45:01.651Z,14.8
2017-09-21T14:46:20.335Z,14.8
2017-09-21T14:47:38.990Z,14.7
2017-09-21T14:48:57.662Z,14.7
2017-09-21T14:50:16.352Z,14.7
2017-09-21T14:51:35.003Z,14.7
2017-09-21T14:52:53.705Z,14.7
2017-09-21T14:54:12.360Z,14.8
2017-09-21T14:55:31.022Z,14.7
2017-09-21T14:56:49.679Z,14.7
2017-09-21T14:58:08.397Z,14.7
2017-09-21T14:59:27.113Z,14.7
2017-09-21T15:00:45.792Z,14.6
2017-09-21T15:02:04.501Z,14.6
2017-09-21T15:03:23.156Z,14.5
2017-09-21T15:04:41.821Z,14.6
2017-09-21T15:06:00.511Z,14.5
2017-09-21T15:07:19.167Z,14.6
2017-09-21T15:08:37.882Z,14.5
2017-09-21T15:09:56.550Z,14.4
2017-09-21T15:11:15.314Z,14.4
2017-09-21T15:12:33.972Z,14.4
2017-09-21T15:13:52.665Z,14.5
2017-09-21T15:15:11.390Z,14.5
2017-09-21T15:16:30.084Z,14.5
2017-09-21T15:17:48.755Z,14.4
2017-09-21T15:19:07.419Z,14.4
2017-09-21T15:20:26.111Z,14.5
2017-09-21T15:21:44.815Z,14.5
2017-09-21T15:23:03.530Z,14.5
2017-09-21T15:24:22.243Z,14.6
2017-09-21T15:25:40.958Z,14.6
2017-09-21T15:26:59.638Z,14.7
2017-09-21T15:28:18.304Z,14.8
2017-09-21T15:29:36.960Z,14.8
2017-09-21T15:30:55.643Z,14.9
2017-09-21T15:32:14.326Z,14.9
2017-09-21T15:33:32.983Z,15
2017-09-21T15:34:51.641Z,15.2
2017-09-21T15:36:10.309Z,15.2
2017-09-21T15:37:29.045Z,15.2
2017-09-21T15:38:47.729Z,15.2
2017-09-21T15:40:06.426Z,15.3
2017-09-21T15:41:25.122Z,15.2
2017-09-21T15:42:43.803Z,15.2
2017-09-21T15:44:02.463Z,15.2
2017-09-21T15:45:21.117Z,15.2
2017-09-21T15:46:39.783Z,15.2
2017-09-21T15:47:58.493Z,15.2
2017-09-21T15:49:17.150Z,15.2
2017-09-21T15:50:35.860Z,15.3
2017-09-21T15:51:54.521Z,15.1
2017-09-21T15:53:13.195Z,15
2017-09-21T15:54:31.915Z,15
2017-09-21T15:55:50.621Z,14.9
2017-09-21T15:57:09.293Z,14.9
2017-09-21T15:58:27.976Z,15
2017-09-21T15:59:46.632Z,15
2017-09-21T16:01:05.343Z,15
2017-09-21T16:02:24.014Z,14.9
2017-09-21T16:03:42.718Z,14.9
2017-09-21T16:05:01.455Z,14.9
2017-09-21T16:06:20.138Z,14.9
2017-09-21T16:07:38.804Z,14.9
2017-09-21T16:08:57.471Z,14.9
2017-09-21T16:10:16.157Z,14.8
2017-09-21T16:11:34.839Z,14.8
2017-09-21T16:12:53.553Z,14.8
2017-09-21T16:14:12.238Z,14.8
2017-09-21T16:15:30.907Z,14.7
2017-09-21T16:16:49.590Z,14.6
2017-09-21T16:18:08.305Z,14.6
2017-09-21T16:19:26.972Z,14.5
2017-09-21T16:20:45.690Z,14.5
2017-09-21T16:22:04.346Z,14.4
2017-09-21T16:23:23.007Z,14.3
2017-09-21T16:24:41.679Z,14.3
2017-09-21T16:26:00.343Z,14.2
2017-09-21T16:27:19.004Z,14.2
2017-09-21T16:28:37.694Z,14.1
2017-09-21T16:29:56.399Z,14.1
2017-09-21T16:31:15.081Z,14.1
2017-09-21T16:32:33.741Z,14
2017-09-21T16:33:52.405Z,14
2017-09-21T16:35:11.078Z,13.9
2017-09-21T16:36:29.767Z,13.8
2017-09-21T16:37:48.428Z,13.7
2017-09-21T16:39:07.119Z,13.7
2017-09-21T16:40:25.783Z,13.7
2017-09-21T16:41:44.435Z,13.7
2017-09-21T16:43:03.151Z,13.7
2017-09-21T16:44:21.805Z,13.7
2017-09-21T16:45:40.477Z,13.6
2017-09-21T16:46:59.143Z,13.6
2017-09-21T16:48:17.842Z,13.5
2017-09-21T16:49:36.504Z,13.4
2017-09-21T16:50:55.240Z,13.2
2017-09-21T16:52:13.938Z,13.1
2017-09-21T16:53:32.599Z,13.1
2017-09-21T16:54:51.260Z,13.1
2017-09-21T16:56:09.948Z,13.1
2017-09-21T16:57:28.652Z,13
2017-09-21T16:58:47.319Z,12.9
2017-09-21T17:00:05.998Z,12.7
2017-09-21T17:01:24.712Z,12.5
2017-09-21T17:02:43.376Z,12.4
2017-09-21T17:04:02.094Z,12.3
2017-09-21T17:05:20.755Z,12.2
2017-09-21T17:06:39.429Z,12.1
2017-09-21T17:07:58.166Z,12
2017-09-21T17:09:16.880Z,12
2017-09-21T17:10:35.544Z,11.9
2017-09-21T17:11:54.211Z,11.9
2017-09-21T17:13:12.868Z,11.9
2017-09-21T17:14:31.526Z,11.9
2017-09-21T17:15:50.183Z,11.9
2017-09-21T17:17:08.866Z,11.9
2017-09-21T17:18:27.564Z,11.9
2017-09-21T17:19:46.230Z,11.9
2017-09-21T17:21:04.890Z,11.9
2017-09-21T17:22:23.571Z,11.9
2017-09-21T17:23:42.227Z,11.8
2017-09-21T17:25:00.917Z,11.8
2017-09-21T17:26:19.598Z,11.8
2017-09-21T17:27:38.266Z,11.8
2017-09-21T17:28:56.975Z,11.8
2017-09-21T17:30:15.635Z,11.7
2017-09-21T17:31:34.287Z,11.7
2017-09-21T17:32:53.005Z,11.6
2017-09-21T17:34:11.685Z,11.5
2017-09-21T17:35:30.377Z,11.4
2017-09-21T17:36:49.051Z,11.3
2017-09-21T17:38:07.774Z,11.3
2017-09-21T17:39:26.445Z,11.2
2017-09-21T17:40:45.154Z,11.2
2017-09-21T17:42:03.866Z,11.1
2017-09-21T17:43:22.578Z,10.9
2017-09-21T17:44:41.248Z,10.8
2017-09-21T17:45:59.909Z,10.7
2017-09-21T17:47:18.571Z,10.7
2017-09-21T17:48:37.233Z,10.6